Time;durP1;ratioP1;P1;durP2;ratioP2;P2;SDS_P1;SDS_P2;PMS_P1;PMS_P2;Temp;Humidity;BMP_temperature;BMP_pressure;BME280_temperature;BME280_humidity;BME280_pressure;Samples;Min_cycle;Max_cycle;Signal;HPM_P1;HPM_P2
2022/03/03 00:01:18;;;;;;;;;;;;;;;4.87;43.35;92779.09;2050516;69;20051;-72
2022/03/03 00:03:44;;;;;;;;;;;;;;;4.98;42.90;92781.41;2050977;70;20038;-73
2022/03/03 00:06:10;;;;;;;;;;;;;;;5.24;43.25;92774.44;2051809;69;20440;-71
2022/03/03 00:08:39;;;;;;;;;;;;;;;5.15;44.01;92775.09;2050516;69;20395;-70
2022/03/03 00:11:06;;;;;;;;;;;;;;;4.98;44.06;92775.81;2050850;69;20521;-74
2022/03/03 00:13:32;;;;;;;;;;;;;;;4.97;43.95;92780.66;2063970;69;20098;-73
2022/03/03 00:15:58;;;;;;;;;;;;;;;5.01;42.89;92774.69;2051473;70;20062;-74
2022/03/03 00:18:24;;;;;;;;;;;;;;;4.80;43.61;92777.84;2050967;69;20046;-73
2022/03/03 00:20:50;;;;;;;;;;;;;;;5.09;43.51;92775.34;2052184;70;20066;-73
2022/03/03 00:23:25;;;;;;;;;;;;;;;4.80;43.74;92770.22;2051204;69;20046;-70
2022/03/03 00:25:53;;;;;;;;;;;;;;;5.04;41.68;92781.88;2060739;69;20086;-70
2022/03/03 00:28:20;;;;;;;;;;;;;;;4.89;43.19;92774.41;2051429;69;20136;-74
2022/03/03 00:30:46;;;;;;;;;;;;;;;4.64;43.91;92765.34;2051469;69;20086;-71
2022/03/03 00:33:12;;;;;;;;;;;;;;;4.62;43.28;92774.28;2049253;69;20467;-73
2022/03/03 00:35:38;;;;;;;;;;;;;;;4.42;44.35;92767.03;2059932;69;20058;-70
2022/03/03 00:38:10;;;;;;;;;;;;;;;4.34;44.40;92767.81;2051144;69;20082;-70
2022/03/03 00:40:36;;;;;;;;;;;;;;;4.33;43.83;92766.34;2052058;69;20055;-70
2022/03/03 00:43:04;;;;;;;;;;;;;;;4.21;44.20;92770.88;2051672;70;20423;-70
2022/03/03 00:45:29;;;;;;;;;;;;;;;4.33;43.95;92763.53;2051502;69;20063;-71
2022/03/03 00:47:55;;;;;;;;;;;;;;;4.22;44.11;92763.28;2051845;69;20049;-70
2022/03/03 00:50:20;;;;;;;;;;;;;;;4.33;43.51;92760.03;2051655;70;20050;-69
2022/03/03 00:52:46;;;;;;;;;;;;;;;4.27;43.40;92773.44;2062026;69;20049;-74
2022/03/03 00:55:12;;;;;;;;;;;;;;;4.00;43.90;92767.69;2061734;69;20507;-71
2022/03/03 00:57:37;;;;;;;;;;;;;;;3.96;44.38;92758.97;2052218;69;20047;-71
2022/03/03 01:00:04;;;;;;;;;;;;;;;3.97;44.77;92763.25;2064154;69;20090;-73
2022/03/03 01:02:30;;;;;;;;;;;;;;;3.88;44.29;92761.81;2049997;70;20142;-71
2022/03/03 01:04:59;;;;;;;;;;;;;;;3.78;44.83;92763.72;2051859;70;20181;-68
2022/03/03 01:07:26;;;;;;;;;;;;;;;3.85;44.88;92762.19;2051567;70;20057;-70
2022/03/03 01:09:52;;;;;;;;;;;;;;;3.65;44.85;92758.41;2051236;69;20431;-70
2022/03/03 01:12:21;;;;;;;;;;;;;;;3.47;45.33;92757.56;2050818;69;20039;-69
2022/03/03 01:14:47;;;;;;;;;;;;;;;3.56;45.30;92752.13;2051067;69;20042;-69
2022/03/03 01:17:13;;;;;;;;;;;;;;;3.51;44.35;92752.34;2051141;70;20425;-68
2022/03/03 01:19:40;;;;;;;;;;;;;;;3.50;45.45;92750.88;2063168;69;20093;-70
2022/03/03 01:22:06;;;;;;;;;;;;;;;3.38;45.64;92749.81;2050683;70;20055;-70
2022/03/03 01:24:33;;;;;;;;;;;;;;;3.27;45.70;92753.75;2050095;69;20205;-71
2022/03/03 01:26:58;;;;;;;;;;;;;;;3.18;45.78;92749.53;2051141;70;20050;-71
2022/03/03 01:29:24;;;;;;;;;;;;;;;3.22;45.57;92751.94;2051333;69;20058;-73
2022/03/03 01:31:49;;;;;;;;;;;;;;;3.13;45.43;92750.47;2050293;70;20131;-70
2022/03/03 01:34:15;;;;;;;;;;;;;;;2.82;45.57;92749.81;2050716;69;20050;-71
2022/03/03 01:36:40;;;;;;;;;;;;;;;3.05;46.00;92747.69;2051429;69;20113;-71
2022/03/03 01:39:06;;;;;;;;;;;;;;;3.02;46.24;92742.50;2051104;69;20423;-71
2022/03/03 01:41:32;;;;;;;;;;;;;;;2.97;45.95;92746.97;2050818;70;20527;-69
2022/03/03 01:43:58;;;;;;;;;;;;;;;2.98;45.52;92737.34;2051200;70;20106;-69
2022/03/03 01:46:23;;;;;;;;;;;;;;;2.95;45.93;92741.25;2051013;70;20058;-70
2022/03/03 01:48:49;;;;;;;;;;;;;;;3.00;45.79;92748.66;2063745;69;20090;-70
2022/03/03 01:51:14;;;;;;;;;;;;;;;2.83;46.54;92745.72;2051002;70;20062;-69
2022/03/03 01:53:40;;;;;;;;;;;;;;;2.73;46.69;92753.16;2050458;70;20058;-72
2022/03/03 01:56:06;;;;;;;;;;;;;;;2.72;47.06;92751.69;2050315;70;20192;-74
2022/03/03 01:58:36;;;;;;;;;;;;;;;2.62;47.02;92753.56;2050598;69;20057;-70
2022/03/03 02:01:02;;;;;;;;;;;;;;;2.75;45.71;92748.53;2050501;69;20070;-70
2022/03/03 02:03:27;;;;;;;;;;;;;;;2.84;45.46;92747.22;2050810;69;20170;-71
2022/03/03 02:05:53;;;;;;;;;;;;;;;2.50;46.32;92748.38;2050264;70;20099;-73
2022/03/03 02:08:19;;;;;;;;;;;;;;;2.64;46.24;92746.13;2050309;69;20046;-70
2022/03/03 02:10:45;;;;;;;;;;;;;;;2.66;46.41;92746.31;2050598;69;20088;-70
2022/03/03 02:13:11;;;;;;;;;;;;;;;2.45;47.12;92748.56;2044227;70;20063;-70
2022/03/03 02:15:38;;;;;;;;;;;;;;;2.30;47.84;92743.75;2043412;70;20202;-72
2022/03/03 02:18:07;;;;;;;;;;;;;;;2.29;47.37;92740.25;2044388;69;20146;-70
2022/03/03 02:24:02;;;;;;;;;;;;;;;2.22;47.89;92731.91;2039507;69;20125;-70
2022/03/03 02:26:27;;;;;;;;;;;;;;;2.33;47.54;92736.34;2041278;69;20162;-70
2022/03/03 02:28:53;;;;;;;;;;;;;;;2.19;48.15;92733.00;2043708;69;20511;-70
2022/03/03 02:31:19;;;;;;;;;;;;;;;2.18;48.04;92728.75;2039920;70;20743;-70
2022/03/03 02:33:45;;;;;;;;;;;;;;;2.06;48.46;92722.09;2040272;70;20134;-70
2022/03/03 02:36:18;;;;;;;;;;;;;;;2.12;48.13;92728.22;2042883;69;20155;-70
2022/03/03 02:38:44;;;;;;;;;;;;;;;2.06;48.13;92728.38;2040289;69;20479;-70
2022/03/03 02:41:10;;;;;;;;;;;;;;;2.17;47.89;92728.03;2040624;69;20048;-71
2022/03/03 02:43:35;;;;;;;;;;;;;;;2.08;47.99;92719.50;2041077;69;20117;-71
2022/03/03 02:46:01;;;;;;;;;;;;;;;2.03;47.92;92721.19;2041506;69;20082;-70
2022/03/03 02:48:27;;;;;;;;;;;;;;;1.88;48.78;92718.38;2041116;70;20142;-72
2022/03/03 02:50:52;;;;;;;;;;;;;;;1.77;48.60;92722.25;2041999;70;20044;-70
2022/03/03 02:53:18;;;;;;;;;;;;;;;1.86;48.41;92720.97;2040949;69;20062;-69
2022/03/03 02:55:43;;;;;;;;;;;;;;;1.89;48.67;92717.09;2040853;70;20071;-70
2022/03/03 02:58:10;;;;;;;;;;;;;;;1.87;47.65;92722.44;2039847;70;20082;-72
2022/03/03 03:00:42;;;;;;;;;;;;;;;1.67;48.27;92710.97;2039931;69;20220;-71
2022/03/03 03:03:08;;;;;;;;;;;;;;;1.74;48.84;92717.81;2041652;70;20459;-71
2022/03/03 03:05:34;;;;;;;;;;;;;;;1.81;48.29;92710.78;2040844;70;20074;-70
2022/03/03 03:07:59;;;;;;;;;;;;;;;1.77;48.02;92716.69;2040718;70;20058;-71
2022/03/03 03:10:24;;;;;;;;;;;;;;;1.61;49.68;92709.66;2040853;69;20056;-71
2022/03/03 03:12:50;;;;;;;;;;;;;;;1.67;49.03;92722.06;2046628;69;20194;-70
2022/03/03 03:15:16;;;;;;;;;;;;;;;1.74;49.07;92715.78;2047132;70;20055;-70
2022/03/03 03:17:41;;;;;;;;;;;;;;;1.82;48.62;92710.22;2047927;70;20165;-70
2022/03/03 03:20:07;;;;;;;;;;;;;;;1.75;48.73;92697.09;2048184;70;20042;-71
2022/03/03 03:22:34;;;;;;;;;;;;;;;1.72;48.47;92695.44;2047147;70;20122;-70
2022/03/03 03:24:59;;;;;;;;;;;;;;;1.69;49.23;92697.25;2046861;70;20056;-69
2022/03/03 03:27:25;;;;;;;;;;;;;;;1.71;49.40;92686.38;2047939;69;20043;-71
2022/03/03 03:29:50;;;;;;;;;;;;;;;1.69;48.96;92686.16;2047091;70;20039;-69
2022/03/03 03:32:16;;;;;;;;;;;;;;;1.57;49.22;92687.09;2047347;70;20137;-70
2022/03/03 03:34:41;;;;;;;;;;;;;;;1.43;49.79;92692.78;2047084;70;20519;-70
2022/03/03 03:37:07;;;;;;;;;;;;;;;1.42;49.76;92691.31;2047670;70;20039;-69
2022/03/03 03:39:32;;;;;;;;;;;;;;;1.46;50.26;92683.34;2047790;70;20545;-70
2022/03/03 03:41:58;;;;;;;;;;;;;;;1.51;49.62;92684.47;2046636;69;20089;-70
2022/03/03 03:44:23;;;;;;;;;;;;;;;1.58;49.87;92691.34;2047324;69;20112;-70
2022/03/03 03:46:49;;;;;;;;;;;;;;;1.49;49.26;92682.25;2047132;69;20046;-69
2022/03/03 03:49:14;;;;;;;;;;;;;;;1.47;49.10;92686.91;2047622;69;20054;-69
2022/03/03 03:51:40;;;;;;;;;;;;;;;1.45;48.95;92683.91;2048050;70;20471;-75
2022/03/03 03:54:05;;;;;;;;;;;;;;;1.23;49.90;92688.84;2059354;69;20457;-69
2022/03/03 03:56:31;;;;;;;;;;;;;;;1.50;49.18;92694.09;2048327;70;20475;-70
2022/03/03 03:58:56;;;;;;;;;;;;;;;1.21;49.85;92690.72;2048657;69;20039;-69
2022/03/03 04:01:22;;;;;;;;;;;;;;;1.38;49.41;92690.19;2048116;70;20095;-69
2022/03/03 04:03:47;;;;;;;;;;;;;;;1.21;50.24;92683.13;2048434;69;20103;-69
2022/03/03 04:06:13;;;;;;;;;;;;;;;1.33;50.10;92683.53;2048131;70;20422;-69
2022/03/03 04:08:39;;;;;;;;;;;;;;;1.25;49.81;92680.00;2048174;69;20070;-70
2022/03/03 04:11:04;;;;;;;;;;;;;;;1.45;49.14;92686.69;2048732;70;20058;-71
2022/03/03 04:13:30;;;;;;;;;;;;;;;1.28;50.17;92687.19;2048650;70;20072;-70
2022/03/03 04:15:55;;;;;;;;;;;;;;;1.30;50.10;92695.72;2048768;70;20386;-70
2022/03/03 04:18:21;;;;;;;;;;;;;;;1.30;49.74;92689.44;2047750;70;20066;-70
2022/03/03 04:20:47;;;;;;;;;;;;;;;1.25;49.76;92683.50;2060790;69;20087;-70
2022/03/03 04:23:12;;;;;;;;;;;;;;;1.23;49.67;92685.34;2047840;70;20086;-69
2022/03/03 04:25:38;;;;;;;;;;;;;;;0.99;50.71;92687.31;2048412;69;20086;-69
2022/03/03 04:28:04;;;;;;;;;;;;;;;1.04;49.83;92690.47;2048091;70;20047;-69
2022/03/03 04:30:30;;;;;;;;;;;;;;;0.79;51.59;92698.50;2048320;69;20058;-69
2022/03/03 04:32:56;;;;;;;;;;;;;;;0.97;51.43;92698.22;2047691;70;20047;-69
2022/03/03 04:35:22;;;;;;;;;;;;;;;0.92;51.11;92695.59;2060208;69;20067;-71
2022/03/03 04:37:47;;;;;;;;;;;;;;;0.90;51.48;92703.72;2058283;69;20144;-70
2022/03/03 04:43:23;;;;;;;;;;;;;;;1.00;50.89;92688.03;2046785;69;20117;-71
2022/03/03 04:45:48;;;;;;;;;;;;;;;0.99;50.69;92694.88;2046998;69;20090;-70
2022/03/03 04:48:14;;;;;;;;;;;;;;;0.66;52.30;92704.91;2048322;69;20083;-70
2022/03/03 04:50:39;;;;;;;;;;;;;;;0.88;51.47;92701.50;2050686;69;20488;-70
2022/03/03 04:53:04;;;;;;;;;;;;;;;0.69;52.41;92701.78;2047212;70;20055;-73
2022/03/03 04:55:30;;;;;;;;;;;;;;;0.82;51.47;92706.44;2047433;70;20149;-71
2022/03/03 04:57:55;;;;;;;;;;;;;;;0.79;51.09;92699.25;2060363;69;20148;-70
2022/03/03 05:00:21;;;;;;;;;;;;;;;0.65;52.01;92700.66;2047906;69;20078;-70
2022/03/03 05:02:46;;;;;;;;;;;;;;;0.77;51.00;92694.22;2047809;69;20431;-71
2022/03/03 05:05:12;;;;;;;;;;;;;;;0.72;51.40;92689.59;2062927;69;20107;-71
2022/03/03 05:07:37;;;;;;;;;;;;;;;0.70;51.58;92692.19;2047662;69;20051;-70
2022/03/03 05:10:04;;;;;;;;;;;;;;;0.66;52.47;92697.34;2048030;69;20462;-67
2022/03/03 05:12:29;;;;;;;;;;;;;;;0.75;52.13;92702.38;2047661;69;20168;-70
2022/03/03 05:14:54;;;;;;;;;;;;;;;0.75;51.53;92704.41;2048247;69;20062;-70
2022/03/03 05:17:20;;;;;;;;;;;;;;;0.75;50.68;92701.63;2047249;69;20132;-71
2022/03/03 05:19:45;;;;;;;;;;;;;;;0.66;51.24;92699.38;2048303;69;20082;-70
2022/03/03 05:22:11;;;;;;;;;;;;;;;0.68;51.21;92697.50;2047341;70;20051;-71
2022/03/03 05:24:38;;;;;;;;;;;;;;;0.60;51.67;92698.78;2047820;70;20089;-69
2022/03/03 05:27:04;;;;;;;;;;;;;;;0.77;50.96;92702.53;2048195;69;20051;-70
2022/03/03 05:29:29;;;;;;;;;;;;;;;0.75;51.00;92698.84;2047761;70;20434;-71
2022/03/03 05:31:57;;;;;;;;;;;;;;;0.71;51.98;92706.78;2048036;70;20046;-70
2022/03/03 05:34:23;;;;;;;;;;;;;;;0.46;52.47;92698.16;2047503;70;20173;-71
2022/03/03 05:36:48;;;;;;;;;;;;;;;0.52;52.59;92701.50;2047857;70;20090;-70
2022/03/03 05:39:15;;;;;;;;;;;;;;;0.66;50.40;92694.56;2047515;69;20190;-70
2022/03/03 05:41:41;;;;;;;;;;;;;;;0.76;49.54;92698.31;2047006;70;20062;-69
2022/03/03 05:44:10;;;;;;;;;;;;;;;0.46;52.12;92700.94;2048166;69;20047;-68
2022/03/03 05:46:36;;;;;;;;;;;;;;;0.40;52.76;92695.53;2047432;69;20047;-69
2022/03/03 05:49:02;;;;;;;;;;;;;;;0.44;52.43;92700.72;2048346;70;20144;-70
2022/03/03 05:51:27;;;;;;;;;;;;;;;0.49;52.01;92695.03;2047456;69;20098;-69
2022/03/03 05:53:53;;;;;;;;;;;;;;;0.66;51.61;92679.97;2058699;69;20081;-69
2022/03/03 05:56:19;;;;;;;;;;;;;;;0.45;52.17;92689.09;2047137;70;20509;-69
2022/03/03 05:58:48;;;;;;;;;;;;;;;0.35;52.53;92687.38;2047644;70;20116;-71
2022/03/03 06:01:15;;;;;;;;;;;;;;;0.58;52.24;92684.72;2047661;69;20047;-69
2022/03/03 06:03:41;;;;;;;;;;;;;;;0.43;52.80;92688.91;2046904;70;20474;-70
2022/03/03 06:06:17;;;;;;;;;;;;;;;0.50;51.89;92693.00;2061174;69;20090;-70
2022/03/03 06:09:03;;;;;;;;;;;;;;;0.51;52.01;92688.94;2047176;69;20054;-70
2022/03/03 06:11:29;;;;;;;;;;;;;;;0.47;52.46;92686.53;2046699;69;20081;-69
2022/03/03 06:14:04;;;;;;;;;;;;;;;0.45;51.66;92689.09;2061999;69;20050;-71
2022/03/03 06:16:31;;;;;;;;;;;;;;;-0.07;55.35;92706.84;2047160;70;20134;-70
2022/03/03 06:18:58;;;;;;;;;;;;;;;0.36;53.17;92708.97;2047451;69;20059;-70
2022/03/03 06:21:24;;;;;;;;;;;;;;;0.50;52.65;92709.59;2048048;69;20646;-69
2022/03/03 06:23:49;;;;;;;;;;;;;;;0.21;54.43;92717.19;2047410;69;20169;-68
2022/03/03 06:26:16;;;;;;;;;;;;;;;0.46;53.02;92721.06;2048354;70;20042;-70
2022/03/03 06:28:42;;;;;;;;;;;;;;;0.34;54.14;92728.19;2047724;70;20070;-70
2022/03/03 06:31:07;;;;;;;;;;;;;;;0.30;52.75;92721.50;2047701;70;20463;-69
2022/03/03 06:33:34;;;;;;;;;;;;;;;0.63;51.37;92722.63;2047744;70;20082;-69
2022/03/03 06:35:59;;;;;;;;;;;;;;;0.42;52.63;92728.22;2048369;70;20043;-68
2022/03/03 06:38:25;;;;;;;;;;;;;;;0.29;53.45;92723.53;2047660;69;20044;-73
2022/03/03 06:40:53;;;;;;;;;;;;;;;0.40;52.07;92719.72;2047574;69;20142;-71
2022/03/03 06:43:18;;;;;;;;;;;;;;;0.58;51.93;92709.66;2060310;69;20078;-70
2022/03/03 06:45:44;;;;;;;;;;;;;;;0.55;51.77;92711.50;2047949;69;20505;-71
2022/03/03 06:48:10;;;;;;;;;;;;;;;0.43;53.22;92722.13;2047727;70;20513;-70
2022/03/03 06:50:36;;;;;;;;;;;;;;;0.42;53.71;92714.38;2047402;69;20589;-69
2022/03/03 06:53:03;;;;;;;;;;;;;;;0.39;54.51;92705.13;2047081;69;20598;-71
2022/03/03 06:55:30;;;;;;;;;;;;;;;0.47;53.61;92708.69;2047825;69;20043;-71
2022/03/03 06:57:57;;;;;;;;;;;;;;;0.48;53.33;92706.66;2048092;69;20054;-70
2022/03/03 07:00:26;;;;;;;;;;;;;;;0.56;52.93;92701.16;2046809;69;20121;-70
2022/03/03 07:02:52;;;;;;;;;;;;;;;0.59;53.24;92695.25;2047197;69;20062;-70
2022/03/03 07:05:18;;;;;;;;;;;;;;;0.64;52.67;92694.38;2047821;70;20047;-69
2022/03/03 07:07:45;;;;;;;;;;;;;;;0.64;53.23;92693.63;2047793;70;20103;-69
2022/03/03 07:10:14;;;;;;;;;;;;;;;0.58;52.68;92698.56;2046814;70;20075;-72
2022/03/03 07:12:40;;;;;;;;;;;;;;;0.61;52.81;92697.50;2047893;70;20047;-73
2022/03/03 07:15:06;;;;;;;;;;;;;;;0.66;52.37;92697.34;2047865;70;20493;-74
2022/03/03 07:17:43;;;;;;;;;;;;;;;0.38;54.09;92700.13;2047603;69;20086;-71
2022/03/03 07:20:10;;;;;;;;;;;;;;;0.59;53.55;92686.94;2048781;70;20141;-69
2022/03/03 07:22:40;;;;;;;;;;;;;;;0.70;53.61;92685.91;2060410;69;20039;-71
2022/03/03 07:25:08;;;;;;;;;;;;;;;0.63;53.22;92678.28;2047818;70;20475;-70
2022/03/03 07:27:34;;;;;;;;;;;;;;;0.71;52.61;92679.81;2048598;70;20883;-70
2022/03/03 07:30:05;;;;;;;;;;;;;;;0.85;51.57;92671.38;2048220;70;20080;-70
2022/03/03 07:32:33;;;;;;;;;;;;;;;0.65;53.24;92675.72;2060370;69;20572;-71
2022/03/03 07:35:01;;;;;;;;;;;;;;;0.66;53.91;92672.41;2049257;70;20051;-70
2022/03/03 07:37:32;;;;;;;;;;;;;;;0.62;53.78;92671.25;2048698;70;20053;-73
2022/03/03 07:40:01;;;;;;;;;;;;;;;0.57;54.59;92664.59;2056527;69;20564;-69
2022/03/03 07:42:27;;;;;;;;;;;;;;;0.97;52.72;92673.25;2048483;69;20134;-69
2022/03/03 07:44:53;;;;;;;;;;;;;;;1.01;52.62;92675.69;2049468;70;20184;-69
2022/03/03 07:47:19;;;;;;;;;;;;;;;0.88;53.37;92679.34;2048463;69;20063;-70
2022/03/03 07:49:45;;;;;;;;;;;;;;;0.86;54.50;92678.38;2047781;69;20046;-70
2022/03/03 07:52:13;;;;;;;;;;;;;;;0.86;53.52;92670.06;2047785;69;20050;-69
2022/03/03 07:54:39;;;;;;;;;;;;;;;0.93;53.73;92661.78;2047482;69;20168;-69
2022/03/03 07:57:08;;;;;;;;;;;;;;;0.98;52.27;92657.38;2048124;69;20062;-73
2022/03/03 07:59:34;;;;;;;;;;;;;;;1.25;50.52;92650.22;2047684;69;20116;-72
2022/03/03 08:02:01;;;;;;;;;;;;;;;1.13;52.56;92649.09;2045789;69;20058;-67
2022/03/03 08:04:28;;;;;;;;;;;;;;;1.10;53.70;92652.22;2046372;69;20095;-70
2022/03/03 08:06:55;;;;;;;;;;;;;;;1.14;53.75;92647.78;2046040;69;21543;-71
2022/03/03 08:09:24;;;;;;;;;;;;;;;1.22;52.85;92642.25;2047589;69;20093;-70
2022/03/03 08:11:52;;;;;;;;;;;;;;;1.11;52.82;92642.63;2047080;69;20045;-69
2022/03/03 08:14:19;;;;;;;;;;;;;;;1.10;53.27;92641.88;2048008;69;20146;-71
2022/03/03 08:16:46;;;;;;;;;;;;;;;1.13;51.95;92645.56;2046660;69;20098;-70
2022/03/03 08:19:13;;;;;;;;;;;;;;;1.18;54.00;92633.56;2047274;69;20510;-69
2022/03/03 08:21:45;;;;;;;;;;;;;;;2.08;52.06;92628.59;2048912;69;20098;-67
2022/03/03 08:24:14;;;;;;;;;;;;;;;2.64;53.71;92629.38;2063436;69;20087;-73
2022/03/03 08:26:42;;;;;;;;;;;;;;;3.06;53.16;92635.13;2047683;69;20085;-70
2022/03/03 08:29:08;;;;;;;;;;;;;;;3.29;51.59;92635.00;2048543;69;20591;-67
2022/03/03 08:31:44;;;;;;;;;;;;;;;4.12;51.16;92626.63;2049083;69;20138;-68
2022/03/03 08:34:16;;;;;;;;;;;;;;;4.40;47.60;92624.69;2047214;69;20086;-68
2022/03/03 08:36:54;;;;;;;;;;;;;;;5.06;47.88;92626.53;2047101;70;20082;-69
2022/03/03 08:39:23;;;;;;;;;;;;;;;5.34;46.71;92627.31;2047222;69;20050;-71
2022/03/03 08:41:52;;;;;;;;;;;;;;;5.85;47.09;92618.00;2046677;69;20051;-70
2022/03/03 08:44:19;;;;;;;;;;;;;;;6.26;45.13;92609.19;2044278;69;20092;-70
2022/03/03 08:46:46;;;;;;;;;;;;;;;6.38;44.42;92609.34;2046198;69;20695;-71
2022/03/03 08:49:13;;;;;;;;;;;;;;;6.95;42.22;92605.84;2047503;69;20449;-70
2022/03/03 08:51:39;;;;;;;;;;;;;;;7.48;42.94;92603.28;2046983;69;20051;-69
2022/03/03 08:54:05;;;;;;;;;;;;;;;7.58;40.39;92596.31;2046137;69;20051;-70
2022/03/03 08:56:30;;;;;;;;;;;;;;;8.01;39.95;92590.09;2045722;69;20104;-70
2022/03/03 08:58:56;;;;;;;;;;;;;;;8.18;39.80;92595.47;2047992;69;20051;-70
2022/03/03 09:01:22;;;;;;;;;;;;;;;8.40;38.28;92593.47;2048687;69;20479;-73
2022/03/03 09:03:47;;;;;;;;;;;;;;;8.87;37.60;92591.66;2046220;69;20051;-70
2022/03/03 09:06:17;;;;;;;;;;;;;;;8.56;36.41;92585.38;2046614;70;20049;-69
2022/03/03 09:08:42;;;;;;;;;;;;;;;8.88;35.81;92578.34;2050205;69;20530;-70
2022/03/03 09:11:08;;;;;;;;;;;;;;;9.51;36.22;92570.38;2048713;70;20080;-69
2022/03/03 09:13:34;;;;;;;;;;;;;;;9.92;35.28;92570.81;2046210;70;20116;-69
2022/03/03 09:15:59;;;;;;;;;;;;;;;9.99;35.18;92566.28;2047370;70;20054;-71
2022/03/03 09:18:25;;;;;;;;;;;;;;;10.29;35.20;92556.88;2045976;70;20040;-72
2022/03/03 09:20:50;;;;;;;;;;;;;;;11.11;34.02;92558.78;2045589;70;20132;-72
2022/03/03 09:23:16;;;;;;;;;;;;;;;11.13;34.34;92550.41;2048175;69;20055;-71
2022/03/03 09:25:42;;;;;;;;;;;;;;;11.88;31.91;92548.94;2045572;69;20093;-70
2022/03/03 09:28:08;;;;;;;;;;;;;;;11.83;32.26;92549.34;2046135;70;20047;-70
2022/03/03 09:30:34;;;;;;;;;;;;;;;12.17;31.84;92548.34;2047786;70;20050;-69
2022/03/03 09:32:59;;;;;;;;;;;;;;;12.90;29.67;92540.03;2048961;70;20070;-70
2022/03/03 09:35:26;;;;;;;;;;;;;;;12.36;29.33;92535.19;2047735;70;20055;-69
2022/03/03 09:37:51;;;;;;;;;;;;;;;12.41;29.52;92531.94;2048523;69;20039;-72
2022/03/03 09:40:17;;;;;;;;;;;;;;;13.30;29.41;92528.56;2045917;69;20055;-70
2022/03/03 09:42:53;;;;;;;;;;;;;;;13.09;29.29;92521.16;2045479;70;20154;-70
2022/03/03 09:45:19;;;;;;;;;;;;;;;12.34;28.77;92518.88;2045608;70;20047;-70
2022/03/03 09:47:45;;;;;;;;;;;;;;;13.00;28.86;92511.53;2048625;69;20063;-73
2022/03/03 09:50:10;;;;;;;;;;;;;;;13.42;28.85;92501.59;2047845;70;20047;-72
2022/03/03 09:52:36;;;;;;;;;;;;;;;14.20;27.63;92496.59;2048949;69;20152;-75
2022/03/03 09:55:02;;;;;;;;;;;;;;;14.36;26.44;92500.16;2048978;69;20047;-72
2022/03/03 09:57:28;;;;;;;;;;;;;;;13.62;27.24;92495.41;2046414;70;20054;-71
2022/03/03 09:59:53;;;;;;;;;;;;;;;14.26;26.62;92484.84;2045625;70;20039;-69
2022/03/03 10:02:19;;;;;;;;;;;;;;;15.42;26.61;92481.88;2047939;70;20066;-71
2022/03/03 10:04:44;;;;;;;;;;;;;;;15.93;25.98;92483.84;2047513;70;20043;-69
2022/03/03 10:07:10;;;;;;;;;;;;;;;16.16;24.55;92468.38;2046419;70;20050;-69
2022/03/03 10:09:59;;;;;;;;;;;;;;;16.03;25.05;92466.47;2047845;70;20629;-71
2022/03/03 10:12:23;;;;;;;;;;;;;;;15.42;23.95;92455.63;2045511;69;20208;-72
2022/03/03 10:14:49;;;;;;;;;;;;;;;15.21;24.15;92456.91;2045704;70;22394;-77
2022/03/03 10:17:15;;;;;;;;;;;;;;;14.75;24.61;92445.16;2046117;70;20418;-74
2022/03/03 10:19:53;;;;;;;;;;;;;;;15.78;24.25;92447.81;2046912;69;20050;-73
2022/03/03 10:22:23;;;;;;;;;;;;;;;16.84;22.33;92442.31;2046622;70;20087;-71
2022/03/03 10:24:51;;;;;;;;;;;;;;;16.45;22.70;92438.88;2045780;70;20506;-73
2022/03/03 10:27:19;;;;;;;;;;;;;;;17.19;23.07;92433.53;2047988;70;20053;-73
2022/03/03 10:29:47;;;;;;;;;;;;;;;15.83;22.01;92423.88;2048765;69;20113;-69
2022/03/03 10:32:21;;;;;;;;;;;;;;;15.71;22.96;92412.81;2048769;70;20163;-77
2022/03/03 10:34:46;;;;;;;;;;;;;;;16.57;22.47;92421.50;2047958;70;20483;-71
2022/03/03 10:37:16;;;;;;;;;;;;;;;17.13;21.29;92421.97;2061311;69;20070;-73
2022/03/03 10:39:48;;;;;;;;;;;;;;;18.13;21.64;92418.56;2046697;69;20043;-70
2022/03/03 10:42:14;;;;;;;;;;;;;;;18.67;20.09;92418.63;2048672;69;20073;-71
2022/03/03 10:44:40;;;;;;;;;;;;;;;18.92;20.68;92423.59;2046763;70;20051;-69
2022/03/03 10:47:07;;;;;;;;;;;;;;;17.60;21.05;92419.88;2045421;69;20116;-73
2022/03/03 10:49:34;;;;;;;;;;;;;;;17.64;20.52;92417.13;2046400;70;20071;-69
2022/03/03 10:52:09;;;;;;;;;;;;;;;18.19;20.19;92416.66;2046595;70;20047;-69
2022/03/03 10:54:47;;;;;;;;;;;;;;;20.37;19.04;92403.31;2045869;70;20051;-69
2022/03/03 10:57:28;;;;;;;;;;;;;;;20.42;19.09;92396.25;2047203;70;20049;-70
2022/03/03 10:59:54;;;;;;;;;;;;;;;20.94;18.79;92396.53;2045423;70;20075;-69
2022/03/03 11:02:20;;;;;;;;;;;;;;;21.66;17.41;92394.84;2045434;69;20395;-70
2022/03/03 11:04:45;;;;;;;;;;;;;;;20.95;16.98;92397.28;2043501;69;20047;-71
2022/03/03 11:07:11;;;;;;;;;;;;;;;21.57;16.81;92386.13;2047705;69;20055;-78
2022/03/03 11:09:38;;;;;;;;;;;;;;;22.19;16.73;92378.41;2048396;70;20437;-70
2022/03/03 11:12:06;;;;;;;;;;;;;;;22.32;16.65;92385.75;2045440;69;20165;-71
2022/03/03 11:14:32;;;;;;;;;;;;;;;24.04;15.46;92383.00;2045295;70;20060;-70
2022/03/03 11:16:58;;;;;;;;;;;;;;;24.66;14.55;92384.03;2046463;70;20055;-70
2022/03/03 11:19:23;;;;;;;;;;;;;;;25.71;14.76;92384.91;2045336;70;20071;-71
2022/03/03 11:21:49;;;;;;;;;;;;;;;24.92;15.27;92374.72;2045414;70;20146;-73
2022/03/03 11:24:17;;;;;;;;;;;;;;;26.51;13.99;92374.69;2045884;70;20514;-74
2022/03/03 11:26:44;;;;;;;;;;;;;;;27.75;13.76;92375.41;2039418;70;20503;-71
2022/03/03 11:29:15;;;;;;;;;;;;;;;29.01;12.61;92368.28;2045084;70;20117;-70
2022/03/03 11:31:41;;;;;;;;;;;;;;;29.79;12.24;92361.34;2045394;69;20047;-70
2022/03/03 11:34:26;;;;;;;;;;;;;;;30.13;12.20;92354.22;2047168;70;20051;-70
2022/03/03 11:37:03;;;;;;;;;;;;;;;30.08;11.83;92355.75;2048896;70;20043;-71
2022/03/03 11:39:45;;;;;;;;;;;;;;;31.27;11.34;92354.16;2048248;70;20479;-69
2022/03/03 11:42:26;;;;;;;;;;;;;;;31.19;11.00;92343.41;2048534;70;20054;-71
2022/03/03 11:45:12;;;;;;;;;;;;;;;31.78;10.97;92339.16;2045761;70;20121;-70
2022/03/03 11:47:38;;;;;;;;;;;;;;;30.77;10.75;92333.44;2044626;70;20182;-72
2022/03/03 11:50:12;;;;;;;;;;;;;;;30.63;11.14;92332.22;2045860;70;20087;-72
2022/03/03 11:52:38;;;;;;;;;;;;;;;31.31;10.94;92322.13;2045908;70;20055;-71
2022/03/03 11:55:22;;;;;;;;;;;;;;;28.43;11.33;92312.53;2047677;70;20177;-69
2022/03/03 11:57:48;;;;;;;;;;;;;;;30.45;11.83;92311.56;2046307;70;20170;-71
2022/03/03 12:00:18;;;;;;;;;;;;;;;29.36;12.23;92312.69;2045283;70;20206;-72
2022/03/03 12:02:52;;;;;;;;;;;;;;;30.33;10.56;92307.44;2046024;70;20085;-70
2022/03/03 12:05:27;;;;;;;;;;;;;;;30.63;11.86;92300.28;2045287;70;20055;-70
2022/03/03 12:07:56;;;;;;;;;;;;;;;28.75;11.23;92294.00;2046307;70;20093;-70
2022/03/03 12:10:22;;;;;;;;;;;;;;;29.78;10.96;92285.22;2048636;70;20051;-71
2022/03/03 12:12:48;;;;;;;;;;;;;;;30.21;10.17;92284.44;2046786;70;20051;-73
2022/03/03 12:15:14;;;;;;;;;;;;;;;31.70;9.96;92284.06;2048115;70;20401;-70
2022/03/03 12:17:48;;;;;;;;;;;;;;;31.29;9.64;92273.44;2046760;70;20048;-70
2022/03/03 12:20:35;;;;;;;;;;;;;;;32.41;10.44;92269.16;2048254;70;20082;-72
2022/03/03 12:23:07;;;;;;;;;;;;;;;32.32;10.04;92262.81;2049256;70;20047;-70
2022/03/03 12:25:51;;;;;;;;;;;;;;;31.63;10.51;92256.63;2045844;70;20070;-70
2022/03/03 12:28:20;;;;;;;;;;;;;;;30.34;9.83;92250.06;2045824;69;20063;-70
2022/03/03 12:30:46;;;;;;;;;;;;;;;31.68;9.57;92248.50;2048003;70;20546;-71
2022/03/03 12:33:25;;;;;;;;;;;;;;;30.79;9.50;92252.03;2045688;70;20099;-73
2022/03/03 12:35:51;;;;;;;;;;;;;;;33.24;9.44;92251.41;2046745;70;20051;-71
2022/03/03 12:38:17;;;;;;;;;;;;;;;32.97;9.59;92243.47;2045823;70;20568;-75
2022/03/03 12:40:43;;;;;;;;;;;;;;;32.98;9.29;92244.91;2046525;69;20086;-73
2022/03/03 12:43:13;;;;;;;;;;;;;;;32.13;9.48;92236.41;2046830;70;20121;-76
2022/03/03 12:45:38;;;;;;;;;;;;;;;32.25;9.39;92230.25;2045722;70;20059;-72
2022/03/03 12:48:04;;;;;;;;;;;;;;;33.14;9.49;92238.59;2046226;70;20056;-74
2022/03/03 12:50:30;;;;;;;;;;;;;;;32.43;10.67;92231.94;2047644;70;20043;-72
2022/03/03 12:53:03;;;;;;;;;;;;;;;33.37;10.09;92224.00;2049214;70;20050;-74
2022/03/03 12:55:48;;;;;;;;;;;;;;;31.54;9.71;92220.50;2045642;69;20047;-72
2022/03/03 12:58:15;;;;;;;;;;;;;;;29.67;10.08;92214.34;2045909;70;20078;-72
2022/03/03 13:00:42;;;;;;;;;;;;;;;29.54;11.04;92210.91;2048279;70;20048;-72
2022/03/03 13:03:08;;;;;;;;;;;;;;;32.23;10.30;92215.75;2045723;70;20073;-70